Mungia, Spain
Current Conditions -  °F | °C
As of 1:00 PM on Sunday 21 Dec 2014 (Local Time) from LEBB Reporting Station
Few Clouds Few Clouds  
Wind Chill: 55°   Ceiling: Unl
Heat Index: 55°   Visibility: 6mi
Dew Point: 46°   Wind: 3mph
Humidity: 72%   Direction: 170°S
Pressure: 30.59"   Gusts: NA
Location:  43.35°N, 2.83°W
Report Text: LEBB 211200Z 17003KT 140V210 9999 FEW024 13/08 Q1036 NOSIG
Loading
Personal Weather Stations






























Interactive Weather Map New forecast layout! Learn more

10-Day Weather Forecast

Advertisements
Track Severe Weather on mobile